sensor_id;sensor_type;location;lat;lon;timestamp;temperature;humidity
41884;DHT22;27566;50.930;5.328;2024-01-16T00:00:05;3.10;90.00
41884;DHT22;27566;50.930;5.328;2024-01-16T00:07:24;3.10;90.00
41884;DHT22;27566;50.930;5.328;2024-01-16T00:09:50;3.10;90.50
41884;DHT22;27566;50.930;5.328;2024-01-16T00:19:37;3.10;90.00
41884;DHT22;27566;50.930;5.328;2024-01-16T00:22:02;3.10;90.40
41884;DHT22;27566;50.930;5.328;2024-01-16T00:24:30;3.10;90.30
41884;DHT22;27566;50.930;5.328;2024-01-16T00:26:56;3.20;90.30
41884;DHT22;27566;50.930;5.328;2024-01-16T00:29:22;3.20;90.30
41884;DHT22;27566;50.930;5.328;2024-01-16T00:34:15;3.20;90.00
41884;DHT22;27566;50.930;5.328;2024-01-16T00:36:40;3.20;90.40
41884;DHT22;27566;50.930;5.328;2024-01-16T00:39:06;3.20;90.20
41884;DHT22;27566;50.930;5.328;2024-01-16T00:48:52;3.20;89.80
41884;DHT22;27566;50.930;5.328;2024-01-16T00:51:18;3.20;90.50
41884;DHT22;27566;50.930;5.328;2024-01-16T00:53:44;3.20;90.10
41884;DHT22;27566;50.930;5.328;2024-01-16T00:56:10;3.30;89.90
41884;DHT22;27566;50.930;5.328;2024-01-16T00:58:36;3.20;90.20
41884;DHT22;27566;50.930;5.328;2024-01-16T01:03:28;3.20;89.70
41884;DHT22;27566;50.930;5.328;2024-01-16T01:05:55;3.30;89.90
41884;DHT22;27566;50.930;5.328;2024-01-16T01:08:21;3.20;90.10
41884;DHT22;27566;50.930;5.328;2024-01-16T01:10:47;3.20;90.10
41884;DHT22;27566;50.930;5.328;2024-01-16T01:25:25;3.20;89.80
41884;DHT22;27566;50.930;5.328;2024-01-16T01:30:18;3.30;89.80
41884;DHT22;27566;50.930;5.328;2024-01-16T01:32:44;3.30;90.10
41884;DHT22;27566;50.930;5.328;2024-01-16T01:35:10;3.30;90.10
41884;DHT22;27566;50.930;5.328;2024-01-16T01:37:37;3.30;90.10
41884;DHT22;27566;50.930;5.328;2024-01-16T01:40:04;3.30;90.00
41884;DHT22;27566;50.930;5.328;2024-01-16T01:49:49;3.30;89.20
41884;DHT22;27566;50.930;5.328;2024-01-16T01:52:15;3.30;89.80
41884;DHT22;27566;50.930;5.328;2024-01-16T01:54:41;3.40;89.80
41884;DHT22;27566;50.930;5.328;2024-01-16T01:57:08;3.40;89.90
41884;DHT22;27566;50.930;5.328;2024-01-16T01:59:34;3.30;89.10
41884;DHT22;27566;50.930;5.328;2024-01-16T02:02:00;3.30;89.60
41884;DHT22;27566;50.930;5.328;2024-01-16T02:04:28;3.30;89.00
41884;DHT22;27566;50.930;5.328;2024-01-16T02:06:54;3.30;89.60
41884;DHT22;27566;50.930;5.328;2024-01-16T02:09:22;3.30;89.70
41884;DHT22;27566;50.930;5.328;2024-01-16T02:11:48;3.30;89.70
41884;DHT22;27566;50.930;5.328;2024-01-16T02:16:41;3.30;88.80
41884;DHT22;27566;50.930;5.328;2024-01-16T02:19:08;3.30;89.40
41884;DHT22;27566;50.930;5.328;2024-01-16T02:21:41;3.30;89.30
41884;DHT22;27566;50.930;5.328;2024-01-16T02:24:08;3.30;88.80
41884;DHT22;27566;50.930;5.328;2024-01-16T02:29:02;3.20;88.90
41884;DHT22;27566;50.930;5.328;2024-01-16T02:31:30;3.20;89.50
41884;DHT22;27566;50.930;5.328;2024-01-16T02:36:24;3.30;88.80
41884;DHT22;27566;50.930;5.328;2024-01-16T02:38:50;3.30;89.30
41884;DHT22;27566;50.930;5.328;2024-01-16T02:41:17;3.30;88.70
41884;DHT22;27566;50.930;5.328;2024-01-16T02:48:37;3.20;88.40
41884;DHT22;27566;50.930;5.328;2024-01-16T02:51:03;3.10;88.80
41884;DHT22;27566;50.930;5.328;2024-01-16T02:53:32;3.10;88.80
41884;DHT22;27566;50.930;5.328;2024-01-16T02:55:57;2.80;88.20
41884;DHT22;27566;50.930;5.328;2024-01-16T02:58:27;2.90;88.30
41884;DHT22;27566;50.930;5.328;2024-01-16T03:05:46;2.80;88.30
41884;DHT22;27566;50.930;5.328;2024-01-16T03:08:12;2.80;88.40
41884;DHT22;27566;50.930;5.328;2024-01-16T03:10:38;2.70;88.90
41884;DHT22;27566;50.930;5.328;2024-01-16T03:13:04;2.70;88.80
41884;DHT22;27566;50.930;5.328;2024-01-16T03:15:30;2.60;88.90
41884;DHT22;27566;50.930;5.328;2024-01-16T03:17:57;2.60;88.80
41884;DHT22;27566;50.930;5.328;2024-01-16T03:20:23;2.50;88.80
41884;DHT22;27566;50.930;5.328;2024-01-16T03:25:16;2.40;88.30
41884;DHT22;27566;50.930;5.328;2024-01-16T03:30:10;2.30;88.30
41884;DHT22;27566;50.930;5.328;2024-01-16T03:32:37;2.30;88.90
41884;DHT22;27566;50.930;5.328;2024-01-16T03:35:04;2.30;89.00
41884;DHT22;27566;50.930;5.328;2024-01-16T03:37:30;2.20;89.00
41884;DHT22;27566;50.930;5.328;2024-01-16T03:39:56;2.20;89.10
41884;DHT22;27566;50.930;5.328;2024-01-16T03:47:15;2.10;88.40
41884;DHT22;27566;50.930;5.328;2024-01-16T03:49:41;2.00;88.30
41884;DHT22;27566;50.930;5.328;2024-01-16T03:52:07;2.00;88.80
41884;DHT22;27566;50.930;5.328;2024-01-16T03:54:33;1.90;88.80
41884;DHT22;27566;50.930;5.328;2024-01-16T03:56:59;1.90;88.80
41884;DHT22;27566;50.930;5.328;2024-01-16T03:59:25;1.80;88.20
41884;DHT22;27566;50.930;5.328;2024-01-16T04:01:51;1.80;88.10
41884;DHT22;27566;50.930;5.328;2024-01-16T04:04:18;1.50;87.90
41884;DHT22;27566;50.930;5.328;2024-01-16T04:06:43;1.60;88.50
41884;DHT22;27566;50.930;5.328;2024-01-16T04:09:09;1.50;87.70
41884;DHT22;27566;50.930;5.328;2024-01-16T04:11:35;1.50;88.30
41884;DHT22;27566;50.930;5.328;2024-01-16T04:14:01;1.50;88.50
41884;DHT22;27566;50.930;5.328;2024-01-16T04:16:28;1.40;88.40
41884;DHT22;27566;50.930;5.328;2024-01-16T04:18:54;1.30;88.40
41884;DHT22;27566;50.930;5.328;2024-01-16T04:26:12;1.20;88.10
41884;DHT22;27566;50.930;5.328;2024-01-16T04:28:38;0.50;88.40
41884;DHT22;27566;50.930;5.328;2024-01-16T04:31:04;1.10;89.00
41884;DHT22;27566;50.930;5.328;2024-01-16T04:33:30;1.10;88.80
41884;DHT22;27566;50.930;5.328;2024-01-16T04:35:57;1.10;89.00
41884;DHT22;27566;50.930;5.328;2024-01-16T04:40:49;1.10;88.70
41884;DHT22;27566;50.930;5.328;2024-01-16T04:43:18;1.10;89.50
41884;DHT22;27566;50.930;5.328;2024-01-16T04:45:44;1.10;89.80
41884;DHT22;27566;50.930;5.328;2024-01-16T04:48:10;1.30;89.70
41884;DHT22;27566;50.930;5.328;2024-01-16T04:50:36;1.10;89.60
41884;DHT22;27566;50.930;5.328;2024-01-16T04:53:02;1.20;89.80
41884;DHT22;27566;50.930;5.328;2024-01-16T04:55:28;1.20;89.70
41884;DHT22;27566;50.930;5.328;2024-01-16T04:57:55;1.30;89.40
41884;DHT22;27566;50.930;5.328;2024-01-16T05:00:22;1.30;89.80
41884;DHT22;27566;50.930;5.328;2024-01-16T05:02:47;1.30;89.80
41884;DHT22;27566;50.930;5.328;2024-01-16T05:05:14;1.30;89.50
41884;DHT22;27566;50.930;5.328;2024-01-16T05:07:40;1.30;89.30
41884;DHT22;27566;50.930;5.328;2024-01-16T05:10:10;1.30;89.20
41884;DHT22;27566;50.930;5.328;2024-01-16T05:12:39;1.30;88.30
41884;DHT22;27566;50.930;5.328;2024-01-16T05:15:05;1.30;88.80
41884;DHT22;27566;50.930;5.328;2024-01-16T05:17:32;1.30;88.80
41884;DHT22;27566;50.930;5.328;2024-01-16T05:19:58;1.30;88.10
41884;DHT22;27566;50.930;5.328;2024-01-16T05:22:24;1.20;88.50
41884;DHT22;27566;50.930;5.328;2024-01-16T05:24:51;1.20;88.40
41884;DHT22;27566;50.930;5.328;2024-01-16T05:27:17;1.10;88.20
41884;DHT22;27566;50.930;5.328;2024-01-16T05:29:43;1.10;88.10
41884;DHT22;27566;50.930;5.328;2024-01-16T05:32:09;1.00;88.70
41884;DHT22;27566;50.930;5.328;2024-01-16T05:34:35;0.90;88.10
41884;DHT22;27566;50.930;5.328;2024-01-16T05:41:53;0.90;87.80
41884;DHT22;27566;50.930;5.328;2024-01-16T05:44:18;0.90;88.40
41884;DHT22;27566;50.930;5.328;2024-01-16T05:49:11;0.90;87.70
41884;DHT22;27566;50.930;5.328;2024-01-16T05:51:36;0.80;88.10
41884;DHT22;27566;50.930;5.328;2024-01-16T05:54:02;0.80;88.10
41884;DHT22;27566;50.930;5.328;2024-01-16T05:58:55;0.70;87.50
41884;DHT22;27566;50.930;5.328;2024-01-16T06:01:21;0.70;88.20
41884;DHT22;27566;50.930;5.328;2024-01-16T06:03:47;0.70;89.10
41884;DHT22;27566;50.930;5.328;2024-01-16T06:06:14;0.70;88.10
41884;DHT22;27566;50.930;5.328;2024-01-16T06:08:40;0.60;88.10
41884;DHT22;27566;50.930;5.328;2024-01-16T06:11:06;0.60;87.90
41884;DHT22;27566;50.930;5.328;2024-01-16T06:13:32;2.20;88.80
41884;DHT22;27566;50.930;5.328;2024-01-16T06:30:35;0.30;87.30
41884;DHT22;27566;50.930;5.328;2024-01-16T06:50:10;0.10;87.40
41884;DHT22;27566;50.930;5.328;2024-01-16T06:52:36;0.10;88.00
41884;DHT22;27566;50.930;5.328;2024-01-16T06:57:28;0.00;87.60
41884;DHT22;27566;50.930;5.328;2024-01-16T07:04:47;0.10;87.90
41884;DHT22;27566;50.930;5.328;2024-01-16T07:07:13;0.10;88.90
41884;DHT22;27566;50.930;5.328;2024-01-16T07:12:05;0.20;88.10
41884;DHT22;27566;50.930;5.328;2024-01-16T07:14:32;0.30;88.30
41884;DHT22;27566;50.930;5.328;2024-01-16T07:34:01;0.60;87.50
41884;DHT22;27566;50.930;5.328;2024-01-16T07:36:27;0.70;87.80
41884;DHT22;27566;50.930;5.328;2024-01-16T07:38:53;0.70;88.00
41884;DHT22;27566;50.930;5.328;2024-01-16T07:41:19;0.70;87.60
41884;DHT22;27566;50.930;5.328;2024-01-16T07:43:45;0.50;87.70
41884;DHT22;27566;50.930;5.328;2024-01-16T07:46:11;0.80;87.80
41884;DHT22;27566;50.930;5.328;2024-01-16T07:48:37;0.80;88.10
41884;DHT22;27566;50.930;5.328;2024-01-16T07:55:55;1.00;87.20
41884;DHT22;27566;50.930;5.328;2024-01-16T08:00:47;1.10;87.00
41884;DHT22;27566;50.930;5.328;2024-01-16T08:08:10;1.40;86.90
41884;DHT22;27566;50.930;5.328;2024-01-16T08:13:02;1.50;86.60
41884;DHT22;27566;50.930;5.328;2024-01-16T08:17:55;1.90;86.00
41884;DHT22;27566;50.930;5.328;2024-01-16T08:20:21;2.00;86.80
41884;DHT22;27566;50.930;5.328;2024-01-16T08:22:46;2.10;86.80
41884;DHT22;27566;50.930;5.328;2024-01-16T08:25:12;2.20;85.70
41884;DHT22;27566;50.930;5.328;2024-01-16T08:27:38;2.20;86.00
41884;DHT22;27566;50.930;5.328;2024-01-16T08:30:06;2.30;86.20
41884;DHT22;27566;50.930;5.328;2024-01-16T08:32:32;2.30;85.80
41884;DHT22;27566;50.930;5.328;2024-01-16T08:34:58;2.40;85.60
41884;DHT22;27566;50.930;5.328;2024-01-16T08:42:17;2.60;84.90
41884;DHT22;27566;50.930;5.328;2024-01-16T08:49:36;2.90;84.40
41884;DHT22;27566;50.930;5.328;2024-01-16T08:52:04;2.90;84.70
41884;DHT22;27566;50.930;5.328;2024-01-16T08:54:31;3.00;84.50
41884;DHT22;27566;50.930;5.328;2024-01-16T08:56:56;3.10;84.50
41884;DHT22;27566;50.930;5.328;2024-01-16T08:59:24;3.20;84.30
41884;DHT22;27566;50.930;5.328;2024-01-16T09:01:50;3.30;84.30
41884;DHT22;27566;50.930;5.328;2024-01-16T09:04:17;3.40;84.10
41884;DHT22;27566;50.930;5.328;2024-01-16T09:06:42;4.00;84.10
41884;DHT22;27566;50.930;5.328;2024-01-16T09:09:08;3.50;83.70
41884;DHT22;27566;50.930;5.328;2024-01-16T09:11:34;3.50;83.30
41884;DHT22;27566;50.930;5.328;2024-01-16T09:14:00;3.60;83.40
41884;DHT22;27566;50.930;5.328;2024-01-16T09:16:26;3.60;82.70
41884;DHT22;27566;50.930;5.328;2024-01-16T09:18:52;3.70;82.50
41884;DHT22;27566;50.930;5.328;2024-01-16T09:21:18;3.70;82.10
41884;DHT22;27566;50.930;5.328;2024-01-16T09:23:44;3.60;82.00
41884;DHT22;27566;50.930;5.328;2024-01-16T09:28:36;3.60;81.20
41884;DHT22;27566;50.930;5.328;2024-01-16T09:31:02;3.60;81.90
41884;DHT22;27566;50.930;5.328;2024-01-16T09:38:21;3.60;79.90
41884;DHT22;27566;50.930;5.328;2024-01-16T09:40:47;3.60;81.00
41884;DHT22;27566;50.930;5.328;2024-01-16T09:43:13;3.70;80.90
41884;DHT22;27566;50.930;5.328;2024-01-16T09:45:40;3.70;80.80
41884;DHT22;27566;50.930;5.328;2024-01-16T09:48:07;3.70;80.20
41884;DHT22;27566;50.930;5.328;2024-01-16T09:50:34;3.80;80.00
41884;DHT22;27566;50.930;5.328;2024-01-16T09:53:00;3.70;79.30
41884;DHT22;27566;50.930;5.328;2024-01-16T09:55:26;3.60;79.90
41884;DHT22;27566;50.930;5.328;2024-01-16T09:57:53;3.30;78.90
41884;DHT22;27566;50.930;5.328;2024-01-16T10:00:19;4.20;79.90
41884;DHT22;27566;50.930;5.328;2024-01-16T10:02:46;3.30;79.50
41884;DHT22;27566;50.930;5.328;2024-01-16T10:07:40;3.20;79.50
41884;DHT22;27566;50.930;5.328;2024-01-16T10:10:07;3.20;80.20
41884;DHT22;27566;50.930;5.328;2024-01-16T10:12:37;3.20;79.60
41884;DHT22;27566;50.930;5.328;2024-01-16T10:15:07;3.20;79.90
41884;DHT22;27566;50.930;5.328;2024-01-16T10:17:41;3.20;79.60
41884;DHT22;27566;50.930;5.328;2024-01-16T10:20:11;3.30;79.60
41884;DHT22;27566;50.930;5.328;2024-01-16T10:22:52;3.30;79.70
41884;DHT22;27566;50.930;5.328;2024-01-16T10:25:18;3.30;79.50
41884;DHT22;27566;50.930;5.328;2024-01-16T10:27:47;3.30;79.10
41884;DHT22;27566;50.930;5.328;2024-01-16T10:32:40;3.30;79.00
41884;DHT22;27566;50.930;5.328;2024-01-16T10:35:11;3.30;79.60
41884;DHT22;27566;50.930;5.328;2024-01-16T10:37:51;3.30;79.50
41884;DHT22;27566;50.930;5.328;2024-01-16T10:40:18;3.20;79.30
41884;DHT22;27566;50.930;5.328;2024-01-16T10:42:45;3.30;79.20
41884;DHT22;27566;50.930;5.328;2024-01-16T10:45:18;3.30;79.60
41884;DHT22;27566;50.930;5.328;2024-01-16T10:47:46;3.30;79.90
41884;DHT22;27566;50.930;5.328;2024-01-16T10:50:12;3.30;79.70
41884;DHT22;27566;50.930;5.328;2024-01-16T10:52:48;3.40;79.30
41884;DHT22;27566;50.930;5.328;2024-01-16T10:55:25;3.40;79.10
41884;DHT22;27566;50.930;5.328;2024-01-16T10:57:55;3.40;79.70
41884;DHT22;27566;50.930;5.328;2024-01-16T11:00:23;3.40;78.90
41884;DHT22;27566;50.930;5.328;2024-01-16T11:03:01;3.40;78.70
41884;DHT22;27566;50.930;5.328;2024-01-16T11:05:31;3.40;78.60
41884;DHT22;27566;50.930;5.328;2024-01-16T11:07:59;3.40;78.20
41884;DHT22;27566;50.930;5.328;2024-01-16T11:10:29;3.40;77.90
41884;DHT22;27566;50.930;5.328;2024-01-16T11:13:03;3.40;77.20
41884;DHT22;27566;50.930;5.328;2024-01-16T11:15:31;3.40;77.00
41884;DHT22;27566;50.930;5.328;2024-01-16T11:17:59;3.30;77.10
41884;DHT22;27566;50.930;5.328;2024-01-16T11:20:26;3.40;77.30
41884;DHT22;27566;50.930;5.328;2024-01-16T11:22:53;3.50;77.00
41884;DHT22;27566;50.930;5.328;2024-01-16T11:25:31;3.50;77.70
41884;DHT22;27566;50.930;5.328;2024-01-16T11:28:12;3.50;77.50
41884;DHT22;27566;50.930;5.328;2024-01-16T11:30:39;3.50;77.30
41884;DHT22;27566;50.930;5.328;2024-01-16T11:33:05;3.50;77.20
41884;DHT22;27566;50.930;5.328;2024-01-16T11:35:40;3.60;77.30
41884;DHT22;27566;50.930;5.328;2024-01-16T11:38:13;3.60;77.00
41884;DHT22;27566;50.930;5.328;2024-01-16T11:40:41;3.70;76.50
41884;DHT22;27566;50.930;5.328;2024-01-16T11:46:03;3.70;76.50
41884;DHT22;27566;50.930;5.328;2024-01-16T11:48:29;3.80;76.40
41884;DHT22;27566;50.930;5.328;2024-01-16T11:50:55;3.80;76.20
41884;DHT22;27566;50.930;5.328;2024-01-16T11:53:32;3.80;76.30
41884;DHT22;27566;50.930;5.328;2024-01-16T12:01:29;3.80;76.10
41884;DHT22;27566;50.930;5.328;2024-01-16T12:04:03;3.90;75.70
41884;DHT22;27566;50.930;5.328;2024-01-16T12:06:31;3.80;75.40
41884;DHT22;27566;50.930;5.328;2024-01-16T12:09:17;3.90;75.20
41884;DHT22;27566;50.930;5.328;2024-01-16T12:11:44;3.90;75.10
41884;DHT22;27566;50.930;5.328;2024-01-16T12:14:22;3.90;74.60
41884;DHT22;27566;50.930;5.328;2024-01-16T12:19:14;3.80;73.70
41884;DHT22;27566;50.930;5.328;2024-01-16T12:21:42;3.80;74.00
41884;DHT22;27566;50.930;5.328;2024-01-16T12:24:10;3.90;73.70
41884;DHT22;27566;50.930;5.328;2024-01-16T12:26:36;3.80;74.20
41884;DHT22;27566;50.930;5.328;2024-01-16T12:29:02;3.80;74.00
41884;DHT22;27566;50.930;5.328;2024-01-16T12:31:29;3.80;74.20
41884;DHT22;27566;50.930;5.328;2024-01-16T12:34:07;3.90;74.40
41884;DHT22;27566;50.930;5.328;2024-01-16T12:36:34;3.90;74.00
41884;DHT22;27566;50.930;5.328;2024-01-16T12:41:36;3.90;73.20
41884;DHT22;27566;50.930;5.328;2024-01-16T12:44:04;3.90;73.90
41884;DHT22;27566;50.930;5.328;2024-01-16T12:46:30;3.90;74.00
41884;DHT22;27566;50.930;5.328;2024-01-16T12:49:03;4.00;73.70
41884;DHT22;27566;50.930;5.328;2024-01-16T12:51:31;4.00;73.70
41884;DHT22;27566;50.930;5.328;2024-01-16T12:54:14;4.10;72.80
41884;DHT22;27566;50.930;5.328;2024-01-16T12:56:40;4.00;73.40
41884;DHT22;27566;50.930;5.328;2024-01-16T12:59:10;4.00;73.20
41884;DHT22;27566;50.930;5.328;2024-01-16T13:01:43;4.00;72.80
41884;DHT22;27566;50.930;5.328;2024-01-16T13:04:10;4.00;72.40
41884;DHT22;27566;50.930;5.328;2024-01-16T13:06:37;4.00;72.00
41884;DHT22;27566;50.930;5.328;2024-01-16T13:09:10;4.00;72.60
41884;DHT22;27566;50.930;5.328;2024-01-16T13:11:49;4.00;72.40
41884;DHT22;27566;50.930;5.328;2024-01-16T13:14:15;4.00;72.10
41884;DHT22;27566;50.930;5.328;2024-01-16T13:16:41;4.00;72.40
41884;DHT22;27566;50.930;5.328;2024-01-16T13:24:03;4.00;71.00
41884;DHT22;27566;50.930;5.328;2024-01-16T13:26:29;4.00;71.30
41884;DHT22;27566;50.930;5.328;2024-01-16T13:28:55;4.00;71.30
41884;DHT22;27566;50.930;5.328;2024-01-16T13:31:21;4.00;71.50
41884;DHT22;27566;50.930;5.328;2024-01-16T13:33:47;4.10;71.70
41884;DHT22;27566;50.930;5.328;2024-01-16T13:36:13;4.10;73.30
41884;DHT22;27566;50.930;5.328;2024-01-16T13:38:39;4.00;71.10
41884;DHT22;27566;50.930;5.328;2024-01-16T13:41:05;4.00;70.50
41884;DHT22;27566;50.930;5.328;2024-01-16T13:45:57;4.00;69.90
41884;DHT22;27566;50.930;5.328;2024-01-16T13:48:23;4.10;70.80
41884;DHT22;27566;50.930;5.328;2024-01-16T13:50:49;4.10;70.50
41884;DHT22;27566;50.930;5.328;2024-01-16T13:53:15;4.00;70.50
41884;DHT22;27566;50.930;5.328;2024-01-16T13:55:41;4.10;69.20
41884;DHT22;27566;50.930;5.328;2024-01-16T13:58:08;4.10;70.10
41884;DHT22;27566;50.930;5.328;2024-01-16T14:00:33;4.00;69.70
41884;DHT22;27566;50.930;5.328;2024-01-16T14:02:59;4.00;69.80
41884;DHT22;27566;50.930;5.328;2024-01-16T14:05:26;4.00;69.90
41884;DHT22;27566;50.930;5.328;2024-01-16T14:10:21;4.00;69.00
41884;DHT22;27566;50.930;5.328;2024-01-16T14:12:49;4.10;69.50
41884;DHT22;27566;50.930;5.328;2024-01-16T14:15:16;4.10;69.40
41884;DHT22;27566;50.930;5.328;2024-01-16T14:17:52;4.20;69.50
41884;DHT22;27566;50.930;5.328;2024-01-16T14:20:18;4.10;69.30
41884;DHT22;27566;50.930;5.328;2024-01-16T14:22:49;4.10;69.10
41884;DHT22;27566;50.930;5.328;2024-01-16T14:25:15;4.10;69.20
41884;DHT22;27566;50.930;5.328;2024-01-16T14:27:47;4.00;70.90
41884;DHT22;27566;50.930;5.328;2024-01-16T14:30:15;4.00;68.60
41884;DHT22;27566;50.930;5.328;2024-01-16T14:32:43;4.00;68.70
41884;DHT22;27566;50.930;5.328;2024-01-16T14:35:11;4.00;68.90
41884;DHT22;27566;50.930;5.328;2024-01-16T14:40:05;3.90;68.20
41884;DHT22;27566;50.930;5.328;2024-01-16T14:45:04;3.90;68.30
41884;DHT22;27566;50.930;5.328;2024-01-16T14:47:31;3.90;68.80
41884;DHT22;27566;50.930;5.328;2024-01-16T14:52:24;3.80;68.00
41884;DHT22;27566;50.930;5.328;2024-01-16T14:54:49;3.80;68.90
41884;DHT22;27566;50.930;5.328;2024-01-16T14:57:16;3.80;69.10
41884;DHT22;27566;50.930;5.328;2024-01-16T14:59:42;3.80;68.80
41884;DHT22;27566;50.930;5.328;2024-01-16T15:02:08;3.70;68.90
41884;DHT22;27566;50.930;5.328;2024-01-16T15:04:42;3.70;68.80
41884;DHT22;27566;50.930;5.328;2024-01-16T15:07:11;3.60;68.80
41884;DHT22;27566;50.930;5.328;2024-01-16T15:12:07;3.60;68.50
41884;DHT22;27566;50.930;5.328;2024-01-16T15:17:03;3.40;68.50
41884;DHT22;27566;50.930;5.328;2024-01-16T15:29:23;3.10;68.20
41884;DHT22;27566;50.930;5.328;2024-01-16T15:31:50;3.00;69.20
41884;DHT22;27566;50.930;5.328;2024-01-16T15:34:19;3.00;69.00
41884;DHT22;27566;50.930;5.328;2024-01-16T15:39:13;2.90;68.30
41884;DHT22;27566;50.930;5.328;2024-01-16T15:41:42;2.80;69.30
41884;DHT22;27566;50.930;5.328;2024-01-16T15:44:09;2.60;68.60
41884;DHT22;27566;50.930;5.328;2024-01-16T15:46:58;2.50;68.60
41884;DHT22;27566;50.930;5.328;2024-01-16T15:49:25;2.50;69.40
41884;DHT22;27566;50.930;5.328;2024-01-16T15:59:11;2.10;69.80
41884;DHT22;27566;50.930;5.328;2024-01-16T16:01:40;2.00;69.80
41884;DHT22;27566;50.930;5.328;2024-01-16T16:04:07;2.00;70.40
41884;DHT22;27566;50.930;5.328;2024-01-16T16:06:39;1.90;71.30
41884;DHT22;27566;50.930;5.328;2024-01-16T16:09:06;1.90;71.20
41884;DHT22;27566;50.930;5.328;2024-01-16T16:11:37;1.80;71.20
41884;DHT22;27566;50.930;5.328;2024-01-16T16:14:13;1.80;71.50
41884;DHT22;27566;50.930;5.328;2024-01-16T16:16:43;1.70;71.20
41884;DHT22;27566;50.930;5.328;2024-01-16T16:19:10;1.60;71.70
41884;DHT22;27566;50.930;5.328;2024-01-16T16:21:36;1.60;71.80
41884;DHT22;27566;50.930;5.328;2024-01-16T16:24:03;1.60;72.10
41884;DHT22;27566;50.930;5.328;2024-01-16T16:26:36;1.50;72.00
41884;DHT22;27566;50.930;5.328;2024-01-16T16:29:07;1.40;72.30
41884;DHT22;27566;50.930;5.328;2024-01-16T16:31:35;1.30;72.00
41884;DHT22;27566;50.930;5.328;2024-01-16T16:34:03;1.30;72.20
41884;DHT22;27566;50.930;5.328;2024-01-16T16:38:58;1.20;72.50
41884;DHT22;27566;50.930;5.328;2024-01-16T16:41:25;1.10;73.00
41884;DHT22;27566;50.930;5.328;2024-01-16T16:43:52;1.10;73.30
41884;DHT22;27566;50.930;5.328;2024-01-16T16:46:19;2.10;74.00
41884;DHT22;27566;50.930;5.328;2024-01-16T16:48:46;1.00;73.10
41884;DHT22;27566;50.930;5.328;2024-01-16T16:51:15;1.00;73.30
41884;DHT22;27566;50.930;5.328;2024-01-16T16:58:48;0.90;73.70
41884;DHT22;27566;50.930;5.328;2024-01-16T17:01:16;0.80;73.90
41884;DHT22;27566;50.930;5.328;2024-01-16T17:03:44;0.70;74.20
41884;DHT22;27566;50.930;5.328;2024-01-16T17:08:40;0.60;74.50
41884;DHT22;27566;50.930;5.328;2024-01-16T17:11:07;0.70;75.30
41884;DHT22;27566;50.930;5.328;2024-01-16T17:13:38;0.60;75.30
41884;DHT22;27566;50.930;5.328;2024-01-16T17:16:04;0.60;75.40
41884;DHT22;27566;50.930;5.328;2024-01-16T17:18:32;0.60;76.40
41884;DHT22;27566;50.930;5.328;2024-01-16T17:40:36;0.60;77.30
41884;DHT22;27566;50.930;5.328;2024-01-16T17:43:05;0.50;78.10
41884;DHT22;27566;50.930;5.328;2024-01-16T17:45:32;0.60;77.80
41884;DHT22;27566;50.930;5.328;2024-01-16T17:47:58;0.50;76.90
41884;DHT22;27566;50.930;5.328;2024-01-16T18:00:12;0.40;76.80
41884;DHT22;27566;50.930;5.328;2024-01-16T18:05:08;0.30;76.90
41884;DHT22;27566;50.930;5.328;2024-01-16T18:12:41;0.20;77.10
41884;DHT22;27566;50.930;5.328;2024-01-16T18:15:10;0.10;78.20
41884;DHT22;27566;50.930;5.328;2024-01-16T18:17:41;0.10;78.00
41884;DHT22;27566;50.930;5.328;2024-01-16T18:20:07;0.10;79.40
41884;DHT22;27566;50.930;5.328;2024-01-16T18:25:01;0.30;79.00
41884;DHT22;27566;50.930;5.328;2024-01-16T18:29:57;0.30;78.90
41884;DHT22;27566;50.930;5.328;2024-01-16T19:06:46;0.10;78.60
41884;DHT22;27566;50.930;5.328;2024-01-16T19:11:47;0.10;78.70
41884;DHT22;27566;50.930;5.328;2024-01-16T20:08:08;-0.10;79.80
41884;DHT22;27566;50.930;5.328;2024-01-16T20:18:00;-0.20;79.60
41884;DHT22;27566;50.930;5.328;2024-01-16T20:20:29;-0.20;79.60
41884;DHT22;27566;50.930;5.328;2024-01-16T20:25:24;-0.20;79.30
41884;DHT22;27566;50.930;5.328;2024-01-16T20:27:51;-0.30;79.40
41884;DHT22;27566;50.930;5.328;2024-01-16T20:32:45;-0.30;79.80
41884;DHT22;27566;50.930;5.328;2024-01-16T20:35:12;-0.30;80.10
41884;DHT22;27566;50.930;5.328;2024-01-16T20:40:05;-0.30;80.20
41884;DHT22;27566;50.930;5.328;2024-01-16T20:49:50;-0.20;80.20
41884;DHT22;27566;50.930;5.328;2024-01-16T20:59:37;-0.30;80.40
41884;DHT22;27566;50.930;5.328;2024-01-16T21:09:28;-0.30;80.40
41884;DHT22;27566;50.930;5.328;2024-01-16T21:16:48;-0.30;80.40
41884;DHT22;27566;50.930;5.328;2024-01-16T21:19:17;-0.30;81.70
41884;DHT22;27566;50.930;5.328;2024-01-16T21:21:44;-0.30;80.10
41884;DHT22;27566;50.930;5.328;2024-01-16T21:24:17;-0.40;81.00
41884;DHT22;27566;50.930;5.328;2024-01-16T21:26:44;-0.40;79.90
41884;DHT22;27566;50.930;5.328;2024-01-16T21:31:44;-0.50;79.90
41884;DHT22;27566;50.930;5.328;2024-01-16T21:34:11;-0.40;80.90
41884;DHT22;27566;50.930;5.328;2024-01-16T21:43:58;-0.40;80.30
41884;DHT22;27566;50.930;5.328;2024-01-16T21:46:24;-0.40;80.10
41884;DHT22;27566;50.930;5.328;2024-01-16T21:58:35;-0.60;79.90
41884;DHT22;27566;50.930;5.328;2024-01-16T22:25:26;-0.70;80.50
41884;DHT22;27566;50.930;5.328;2024-01-16T22:27:51;0.70;81.90
41884;DHT22;27566;50.930;5.328;2024-01-16T22:30:17;0.40;81.70
41884;DHT22;27566;50.930;5.328;2024-01-16T22:32:43;-0.70;81.00
41884;DHT22;27566;50.930;5.328;2024-01-16T22:35:10;0.40;81.70
41884;DHT22;27566;50.930;5.328;2024-01-16T22:40:04;-0.80;80.60
41884;DHT22;27566;50.930;5.328;2024-01-16T22:42:30;-0.80;81.10
41884;DHT22;27566;50.930;5.328;2024-01-16T22:44:56;-0.80;80.90
41884;DHT22;27566;50.930;5.328;2024-01-16T22:52:14;-0.80;80.50
41884;DHT22;27566;50.930;5.328;2024-01-16T23:22:12;-0.70;82.30
41884;DHT22;27566;50.930;5.328;2024-01-16T23:24:40;-0.70;82.50
41884;DHT22;27566;50.930;5.328;2024-01-16T23:27:20;-0.70;82.00
41884;DHT22;27566;50.930;5.328;2024-01-16T23:29:47;-0.70;82.00
41884;DHT22;27566;50.930;5.328;2024-01-16T23:32:13;-0.70;81.80
41884;DHT22;27566;50.930;5.328;2024-01-16T23:34:39;-0.70;82.20
41884;DHT22;27566;50.930;5.328;2024-01-16T23:56:37;-0.60;80.30
41884;DHT22;27566;50.930;5.328;2024-01-16T23:59:02;-0.70;81.00
